Skip to Main Content
SEARCH:
Location Air RH Dwp Precip Type Wind Speed Wind Gust Direction Pavement Temperature Date/Time
Hatem Bridge US 40 E/B 59 98 59 None Calm 7 mph E 60 - 60 5/29/2017 3:36:00 AM
I-270 at I-370 62 98 61 None Calm Calm N 65 - 65 5/29/2017 3:35:00 AM
I-270 at MD-109 62 100 62 Rain Calm 5 mph E 65 - 65 5/29/2017 3:35:00 AM
I-495 at American Legion Bridge 63 100 63 None Calm 4 mph E 65 - 66 5/29/2017 3:35:00 AM
I-68 at MD-219 60 100 60 None 10 mph 24 mph W 61 - 62 5/29/2017 3:35:00 AM
I-68 at Savage Mt 59 100 59 None Calm 4 mph SW 57 - 58 5/29/2017 3:35:00 AM
I-68 at Sideling Hill 61 100 61 None Calm Calm N 63 - 63 5/29/2017 3:35:00 AM
I-68 at WV Line 62 96 61 Rain 4 mph 10 mph SW 65 - 65 5/29/2017 3:35:00 AM
I-695 at I-83 60 95 58 None Calm Calm E 64 - 65 5/29/2017 3:35:00 AM
I-70 at Fred-Wash Co. - - - No Data Available - - No Data Available -
I-70 at I-695 60 99 60 None Calm Calm SE 63 - 65 5/29/2017 3:35:00 AM
I-70 at I-81 63 100 63 None Calm 7 mph SE 65 - 65 5/29/2017 3:35:00 AM
I-70 at MD-27 60 100 60 None Calm Calm SE 63 - 64 5/29/2017 3:35:00 AM
I-70 at MD-32 60 98 60 Rain Calm Calm N 64 - 65 5/29/2017 3:35:00 AM
I-83 at MD-137 59 100 59 None Calm Calm N 62 - 62 5/29/2017 3:35:00 AM
I-95 at I-695 NE 60 95 59 None Calm Calm NE 63 - 63 5/29/2017 3:36:00 AM
I-95 at Patuxent River 62 100 62 None Calm 4 mph N 63 - 64 5/29/2017 3:35:00 AM
I-95 at Tydings Bridge 59 95 58 None Calm 4 mph NE 61 - 61 5/29/2017 3:35:00 AM
I-95/495 at I-295 68 85 64 None Calm Calm E 67 - 67 5/29/2017 3:35:00 AM
I-97 at MD-100 61 98 60 None Calm Calm NE 64 - 65 5/29/2017 3:35:00 AM
I-97 at MD-32 61 96 60 None 10 mph 12 mph N 64 - 64 5/29/2017 3:35:00 AM
MD 20 at MD 21 60 96 59 None Calm 7 mph N 64 - 64 5/29/2017 3:35:00 AM
MD 231 at Patuxent River 63 96 62 None Calm 8 mph N 65 - 68 5/29/2017 3:35:00 AM
MD 260 at Cox Rd 62 96 61 None Calm Calm NE 69 - 69 5/29/2017 3:35:00 AM
MD-135 at Salt Dome 59 100 59 None 6 mph 15 mph W 60 - 60 5/29/2017 3:35:00 AM
MD-140 at MD-97 59 100 59 Rain Calm 6 mph N 62 - 62 5/29/2017 3:35:00 AM
MD-200 EB at Bonifant Rd 60 100 60 None Calm Calm E 64 - 65 5/29/2017 3:36:00 AM
MD-200 WB at Muncaster Mill Rd 60 98 60 None Calm 4 mph NE 64 - 66 5/29/2017 3:36:00 AM
MD-213 at Sassafras River 61 100 61 None Calm 5 mph NE 64 - 64 5/29/2017 3:35:00 AM
MD-24 at Rock St Park 60 100 60 None Calm Calm N 63 - 63 5/29/2017 3:35:00 AM
MD-30 at PA Line 58 100 58 None Calm 5 mph SE 63 - 63 5/29/2017 3:35:00 AM
MD-301 at MD-305 60 95 59 None Calm 4 mph N 64 - 64 5/29/2017 3:35:00 AM
MD-33 at Knapps Narrows Drawbridge 62 95 61 None Calm 5 mph N 68 - 68 5/29/2017 3:35:00 AM
MD-344 at MD-224 64 100 64 None Calm Calm N 68 - 68 5/29/2017 3:35:00 AM
MD-4 at Patuxent River 64 100 64 None - - No Data Available 67 - 69 5/29/2017 3:35:00 AM
MD-404 at Choptank River - - - No Data Available - - No Data Available -
MD-43 at MD-150 61 100 61 None Calm 4 mph NE 64 - 64 5/29/2017 3:35:00 AM
MD-51 at Oldtown Salt Dome 63 100 63 None Calm Calm NE 65 - 65 5/29/2017 3:35:00 AM
MD-64 at MD-418 - - - No Data Available - - No Data Available -
US-1 at Baltimore / Harford Co. Line 59 97 58 None Calm Calm W 63 - 63 5/29/2017 3:35:00 AM
US-1 at Conowingo Dam 60 100 60 None Calm Calm E 63 - 63 5/29/2017 3:35:00 AM
US-13 at US-113 62 99 62 None 4 mph 7 mph NW 69 - 69 5/29/2017 3:35:00 AM
US-13 at US-50 - - - No Data Available - - No Data Available -
US-15 at MD-140 61 99 61 None Calm 4 mph SE 65 - 65 5/29/2017 3:35:00 AM
US-301 at MD-5 62 100 62 None Calm Calm N 67 - 68 5/29/2017 3:35:00 AM
US-301 at Potomac 74 76 66 None Calm Calm N 66 - 69 5/29/2017 3:35:00 AM
US-301 on HWN Bridge 63 100 63 None 4 mph 6 mph N 67 - 67 5/29/2017 3:36:00 AM
US-340 at MD-180 62 98 62 None Calm Calm N 66 - 66 5/29/2017 3:35:00 AM
US-50 at Choptank 61 100 61 None Calm 4 mph NW 64 - 64 5/29/2017 3:35:00 AM
US-50 at I-95 63 100 63 None Calm Calm NE 64 - 65 5/29/2017 3:35:00 AM
US-50 at MD-2 61 100 61 None Calm 5 mph N 64 - 65 5/29/2017 3:35:00 AM
US-50 at MD-331 63 90 60 None 4 mph 6 mph N 64 - 64 5/29/2017 3:35:00 AM
US-50 at OC Drawbridge 61 100 61 None 6 mph 9 mph NW 64 - 64 5/29/2017 3:35:00 AM
US-50 at Table Rock Rd 59 100 59 Rain 4 mph 9 mph W 62 - 62 5/29/2017 3:35:00 AM
US-50 Kent Narrow Bridge 62 100 62 None 4 mph 6 mph N 63 - 64 5/29/2017 3:35:00 AM
WPL Pier 31 61 94 60 None 9 mph 9 mph NE 64 - 64 5/29/2017 3:36:00 AM
Location Air RH Dwp Precip Type Wind Speed Wind Gust Direction Pavement Temperature Date/Time